Time;durP1;ratioP1;P1;durP2;ratioP2;P2;SDS_P1;SDS_P2;PMS_P1;PMS_P2;Temp;Humidity;BMP_temperature;BMP_pressure;BME280_temperature;BME280_humidity;BME280_pressure;Samples;Min_cycle;Max_cycle;Signal;HPM_P1;HPM_P2
2022/08/01 00:00:09;;;;;;;3.72;2.20;;;;;;;18.49;74.35;100407.99;5231683;56;1137174;-65
2022/08/01 00:05:16;;;;;;;4.75;2.15;;;;;;;18.46;74.29;100411.88;5227262;56;1136956;-65
2022/08/01 00:10:22;;;;;;;11.22;4.60;;;;;;;18.36;74.37;100412.55;5206616;56;1136948;-64
2022/08/01 00:15:28;;;;;;;18.25;6.22;;;;;;;18.31;74.51;100407.41;5152056;56;1138948;-64
2022/08/01 00:20:33;;;;;;;21.87;8.40;;;;;;;18.28;74.85;100400.55;5152243;56;1139030;-65
2022/08/01 00:25:40;;;;;;;9.93;6.22;;;;;;;18.24;75.16;100396.03;5152239;56;1136945;-63
2022/08/01 00:30:46;;;;;;;13.35;5.55;;;;;;;18.25;75.44;100395.02;5160022;57;21246;-63
2022/08/01 00:35:51;;;;;;;13.58;6.00;;;;;;;18.25;75.19;100391.52;5072906;57;1136924;-64
2022/08/01 00:40:57;;;;;;;9.75;5.00;;;;;;;18.25;75.46;100395.02;5072966;57;1141070;-64
2022/08/01 00:46:03;;;;;;;11.33;5.60;;;;;;;18.21;75.25;100392.34;5150378;56;1138935;-64
2022/08/01 00:51:09;;;;;;;7.50;4.17;;;;;;;18.09;75.05;100388.38;5156851;56;1144107;-65
2022/08/01 00:56:15;;;;;;;6.45;4.22;;;;;;;18.07;75.49;100393.05;5156403;56;1138968;-65
2022/08/01 01:01:22;;;;;;;11.73;4.30;;;;;;;18.14;75.90;100390.05;5155168;56;1139018;-63
2022/08/01 01:06:35;;;;;;;3.12;2.92;;;;;;;18.08;75.43;100384.52;5151753;56;1141097;-65
2022/08/01 01:12:06;;;;;;;6.65;3.77;;;;;;;18.12;76.15;100386.70;5178183;56;1139025;-65
2022/08/01 01:17:15;;;;;;;7.10;3.15;;;;;;;18.03;76.09;100382.85;5227678;56;1138914;-64
2022/08/01 01:22:31;;;;;;;4.65;3.40;;;;;;;17.91;76.28;100386.39;5227715;56;1138962;-65
2022/08/01 01:28:19;;;;;;;5.72;2.90;;;;;;;17.85;76.28;100383.91;5227674;56;1138962;-64
2022/08/01 01:33:33;;;;;;;7.83;3.45;;;;;;;17.86;76.71;100378.89;5171773;56;1139005;-64
2022/08/01 01:38:44;;;;;;;7.53;3.00;;;;;;;17.83;76.48;100380.56;5145563;57;1138941;-64
2022/08/01 01:43:51;;;;;;;3.12;2.62;;;;;;;17.73;76.57;100367.84;5150043;56;1139033;-63
2022/08/01 01:48:59;;;;;;;8.25;3.42;;;;;;;17.73;77.10;100377.70;5146254;57;1138941;-65
2022/08/01 01:54:08;;;;;;;9.37;3.23;;;;;;;17.72;77.59;100370.72;5145937;57;1139056;-64
2022/08/01 01:59:13;;;;;;;2.95;2.67;;;;;;;17.65;77.69;100362.52;5145932;57;1139042;-65
2022/08/01 02:04:21;;;;;;;2.50;2.15;;;;;;;17.58;77.78;100357.46;5219113;56;1138898;-64
2022/08/01 02:09:29;;;;;;;3.08;2.80;;;;;;;17.62;78.37;100359.30;5227455;56;1136966;-64
2022/08/01 02:14:36;;;;;;;3.52;3.22;;;;;;;17.58;78.51;100362.81;5169340;56;1136952;-65
2022/08/01 02:19:41;;;;;;;2.70;2.25;;;;;;;17.50;79.25;100366.34;5151718;56;1136980;-64
2022/08/01 02:24:58;;;;;;;4.62;2.35;;;;;;;17.44;79.55;100366.99;5151512;56;1136885;-64
2022/08/01 02:30:07;;;;;;;5.40;3.13;;;;;;;17.42;80.21;100358.80;5150683;56;1137025;-65
2022/08/01 02:35:28;;;;;;;5.20;3.03;;;;;;;17.31;81.18;100341.27;5076547;57;1137118;-64
2022/08/01 02:40:38;;;;;;;3.27;2.70;;;;;;;17.31;81.18;100341.27;5154680;56;1136975;-65
2022/08/01 02:45:48;;;;;;;2.33;2.13;;;;;;;17.34;80.29;100344.11;5145656;56;1136907;-66
2022/08/01 02:50:56;;;;;;;4.72;2.30;;;;;;;17.32;81.03;100345.61;5135244;57;1137022;-64
2022/08/01 02:56:06;;;;;;;3.80;2.50;;;;;;;17.33;81.46;100334.41;5105448;57;1136860;-65
2022/08/01 03:01:12;;;;;;;5.10;3.02;;;;;;;17.31;82.17;100329.73;5072382;57;1134831;-63
2022/08/01 03:06:20;;;;;;;4.08;2.70;;;;;;;17.32;82.35;100327.40;5143767;57;1138951;-66
2022/08/01 03:11:28;;;;;;;4.70;2.20;;;;;;;17.43;82.55;100324.38;5047910;57;1138936;-64
2022/08/01 03:16:37;;;;;;;5.37;2.43;;;;;;;17.49;82.36;100319.20;5150486;57;1139058;-63
2022/08/01 03:21:45;;;;;;;10.23;4.05;;;;;;;17.52;82.47;100315.37;5150338;57;1139034;-64
2022/08/01 03:26:53;;;;;;;5.27;3.03;;;;;;;17.53;83.17;100322.39;5150138;57;1141351;-66
2022/08/01 03:32:02;;;;;;;5.53;3.30;;;;;;;17.47;83.09;100318.53;5144762;57;1138940;-64
2022/08/01 03:37:30;;;;;;;6.83;2.77;;;;;;;17.48;83.52;100324.22;5146509;57;1139010;-65
2022/08/01 03:42:41;;;;;;;8.10;1.90;;;;;;;17.51;83.55;100312.36;5120416;57;1139040;-66
2022/08/01 03:47:51;;;;;;;3.83;2.53;;;;;;;17.46;83.92;100303.99;5132156;57;1139028;-64
2022/08/01 03:52:59;;;;;;;2.67;2.00;;;;;;;17.48;83.88;100310.85;5068672;58;1138986;-63
2022/08/01 03:58:06;;;;;;;3.53;2.17;;;;;;;17.48;83.93;100314.86;5071730;58;1139065;-64
2022/08/01 04:03:14;;;;;;;2.30;2.10;;;;;;;17.46;84.37;100314.19;5097655;57;1138983;-63
2022/08/01 04:08:20;;;;;;;2.87;1.90;;;;;;;17.51;84.21;100315.03;5067460;58;1139114;-62
2022/08/01 04:13:26;;;;;;;3.13;1.90;;;;;;;17.55;84.39;100311.02;5062510;58;1139019;-65
2022/08/01 04:18:32;;;;;;;2.45;2.00;;;;;;;17.61;84.53;100316.17;5115931;57;1139015;-64
2022/08/01 04:23:40;;;;;;;2.43;2.17;;;;;;;17.66;84.53;100317.89;5122700;57;1139244;-66
2022/08/01 04:28:47;;;;;;;2.77;2.03;;;;;;;17.67;84.61;100309.70;5125619;57;1138984;-63
2022/08/01 04:33:55;;;;;;;9.60;1.90;;;;;;;17.70;84.44;100312.53;5125084;57;1138864;-63
2022/08/01 04:39:02;;;;;;;7.90;2.50;;;;;;;17.79;84.68;100302.14;5122063;57;1139253;-63
2022/08/01 04:44:08;;;;;;;11.03;2.60;;;;;;;17.86;84.85;100301.80;5121888;57;1139090;-63
2022/08/01 04:49:16;;;;;;;5.13;2.50;;;;;;;17.88;84.80;100299.27;5121938;57;1141073;-64
2022/08/01 04:54:22;;;;;;;6.55;2.35;;;;;;;17.88;84.83;100297.09;5121900;57;1138982;-64
2022/08/01 04:59:41;;;;;;;2.27;2.12;;;;;;;17.88;85.01;100295.75;5121886;57;1138966;-65
2022/08/01 05:04:47;;;;;;;7.80;2.70;;;;;;;17.86;85.06;100299.97;5117509;57;1139256;-64
2022/08/01 05:09:53;;;;;;;5.94;2.50;;;;;;;17.85;85.19;100306.82;5117430;57;1139086;-65
2022/08/01 05:15:01;;;;;;;7.33;2.27;;;;;;;17.82;85.13;100299.13;5117346;57;1139105;-63
2022/08/01 05:20:07;;;;;;;2.70;2.50;;;;;;;17.85;85.55;100294.28;5117435;57;1136884;-64
2022/08/01 05:25:13;;;;;;;3.40;2.17;;;;;;;17.87;85.51;100296.25;5091514;57;1137055;-63
2022/08/01 05:30:19;;;;;;;6.43;3.00;;;;;;;17.85;85.62;100292.95;5087000;57;1137042;-66
2022/08/01 05:35:25;;;;;;;7.63;2.47;;;;;;;17.83;86.24;100294.95;5059081;57;1136937;-65
2022/08/01 05:40:31;;;;;;;5.33;2.53;;;;;;;17.85;86.78;100294.78;4980594;59;1136993;-63
2022/08/01 05:45:37;;;;;;;3.08;2.40;;;;;;;17.88;86.49;100291.23;4987198;58;1136962;-65
2022/08/01 05:50:43;;;;;;;6.03;2.60;;;;;;;17.91;86.86;100288.22;4987340;58;1136968;-65
2022/08/01 05:55:49;;;;;;;8.13;2.37;;;;;;;17.94;87.02;100292.41;4987227;58;1136875;-64
2022/08/01 06:00:55;;;;;;;6.93;3.20;;;;;;;17.98;87.20;100294.23;5003905;58;1137021;-64
2022/08/01 06:06:02;;;;;;;6.53;5.27;;;;;;;18.03;86.95;100291.36;5109021;57;1136856;-65
2022/08/01 06:11:08;;;;;;;9.70;7.53;;;;;;;18.11;86.84;100306.06;5122005;57;1136966;-65
2022/08/01 06:16:13;;;;;;;5.03;2.70;;;;;;;18.16;87.29;100305.05;5134869;57;1136972;-64
2022/08/01 06:21:20;;;;;;;7.60;2.93;;;;;;;18.17;87.26;100299.20;5154993;57;1137162;-65
2022/08/01 06:26:26;;;;;;;8.00;3.17;;;;;;;18.14;87.34;100294.19;5155107;56;1136921;-63
2022/08/01 06:31:31;;;;;;;4.25;2.52;;;;;;;18.18;87.46;100296.31;5105368;57;1136838;-64
2022/08/01 06:36:37;;;;;;;5.83;2.58;;;;;;;18.23;87.04;100310.53;5154215;57;1136937;-64
2022/08/01 06:41:45;;;;;;;5.65;3.05;;;;;;;18.28;87.33;100314.87;5059407;57;1136912;-64
2022/08/01 06:46:50;;;;;;;7.47;4.00;;;;;;;18.25;87.67;100309.36;5074523;57;1137131;-64
2022/08/01 06:51:55;;;;;;;4.55;2.60;;;;;;;18.24;88.01;100313.54;5071333;57;1134861;-65
2022/08/01 06:57:01;;;;;;;4.45;2.90;;;;;;;18.28;87.98;100309.02;5071429;58;1134811;-65
2022/08/01 07:02:07;;;;;;;4.00;2.90;;;;;;;18.35;88.16;100311.81;5074328;57;1138900;-66
2022/08/01 07:07:13;;;;;;;9.30;3.23;;;;;;;18.43;88.24;100311.79;5150608;57;1139095;-65
2022/08/01 07:12:18;;;;;;;3.00;2.70;;;;;;;18.51;88.22;100307.72;5150557;57;1139170;-64
2022/08/01 07:17:24;;;;;;;5.10;3.23;;;;;;;18.63;88.12;100315.41;5150445;57;1139075;-66
2022/08/01 07:22:29;;;;;;;5.22;3.90;;;;;;;18.74;87.90;100319.03;5150084;56;1139038;-64
2022/08/01 07:27:36;;;;;;;6.40;3.17;;;;;;;18.81;87.60;100324.83;5231663;56;1139140;-64
2022/08/01 07:32:41;;;;;;;8.65;3.42;;;;;;;18.90;87.49;100322.44;5154847;57;1139046;-66
2022/08/01 07:37:47;;;;;;;4.15;3.37;;;;;;;18.97;87.71;100318.02;5152787;57;1139150;-64
2022/08/01 07:42:53;;;;;;;5.08;3.55;;;;;;;19.06;87.23;100322.84;5147263;56;1139013;-64
2022/08/01 07:48:07;;;;;;;5.92;3.45;;;;;;;19.18;87.06;100321.40;5152967;56;1139132;-63
2022/08/01 07:53:12;;;;;;;8.03;3.33;;;;;;;19.27;86.73;100316.80;5143097;56;1138983;-64
2022/08/01 07:58:18;;;;;;;2.87;2.67;;;;;;;19.34;86.18;100311.05;4990630;58;1139059;-63
2022/08/01 08:03:24;;;;;;;5.17;4.15;;;;;;;19.39;86.20;100318.05;5030749;58;1138942;-65
2022/08/01 08:08:31;;;;;;;6.42;3.87;;;;;;;19.44;85.57;100312.97;5082486;57;1139036;-65
2022/08/01 08:13:37;;;;;;;3.90;3.00;;;;;;;19.54;85.69;100317.62;5088143;57;1139007;-65
2022/08/01 08:18:42;;;;;;;10.23;4.25;;;;;;;19.63;85.48;100327.75;5138248;56;1138980;-63
2022/08/01 08:29:11;;;;;;;8.98;5.15;;;;;;;19.78;84.92;100331.80;5148515;56;1141031;-66
2022/08/01 08:34:17;;;;;;;5.72;4.45;;;;;;;19.90;85.22;100338.37;5071059;57;1139291;-66
2022/08/01 08:39:23;;;;;;;4.22;3.55;;;;;;;20.02;85.00;100336.39;5059778;58;1138955;-63
2022/08/01 08:44:29;;;;;;;7.60;3.80;;;;;;;20.16;84.44;100336.61;5118126;57;1138953;-66
2022/08/01 08:49:36;;;;;;;4.72;4.33;;;;;;;20.24;84.47;100336.50;5124441;57;1139324;-64
2022/08/01 08:54:44;;;;;;;7.03;4.10;;;;;;;20.38;84.42;100337.53;5143727;57;1139080;-65
2022/08/01 08:59:52;;;;;;;7.05;5.35;;;;;;;20.50;83.36;100337.38;5146443;57;1139014;-64
2022/08/01 09:04:58;;;;;;;12.30;4.75;;;;;;;20.63;83.47;100340.22;5155161;57;1139010;-66
2022/08/01 09:10:05;;;;;;;4.22;3.83;;;;;;;20.81;83.84;100337.12;5155167;57;1141299;-66
2022/08/01 09:15:11;;;;;;;10.53;5.15;;;;;;;21.01;83.59;100347.09;5121362;57;1139054;-65
2022/08/01 09:20:26;;;;;;;10.50;4.85;;;;;;;21.16;81.65;100344.85;5140900;57;1141236;-65
2022/08/01 09:25:35;;;;;;;7.55;4.28;;;;;;;21.29;81.66;100341.80;5134021;56;1141064;-64
2022/08/01 09:30:41;;;;;;;6.17;5.42;;;;;;;21.48;79.12;100334.94;5091179;57;1139032;-66
2022/08/01 09:35:57;;;;;;;6.22;4.65;;;;;;;21.66;80.22;100345.23;5133853;57;1139005;-64
2022/08/01 09:41:02;;;;;;;8.15;4.47;;;;;;;21.82;79.41;100353.54;5133811;57;1136941;-64
2022/08/01 09:46:12;;;;;;;10.50;4.72;;;;;;;21.96;79.71;100358.82;5076123;57;1137134;-66
2022/08/01 09:51:22;;;;;;;15.65;5.30;;;;;;;22.13;78.85;100354.50;5019009;58;1139202;-66
2022/08/01 09:56:30;;;;;;;13.25;5.10;;;;;;;22.30;77.94;100349.12;4998188;58;1139041;-65
2022/08/01 10:01:46;;;;;;;6.28;4.78;;;;;;;22.41;78.27;100345.84;5031975;57;1139046;-64
2022/08/01 10:06:53;;;;;;;11.12;5.05;;;;;;;22.58;78.29;100336.39;4815450;59;1137074;-66
2022/08/01 10:12:01;;;;;;;8.43;5.65;;;;;;;22.94;78.27;100333.92;4850289;60;1139212;-67
2022/08/01 10:17:10;;;;;;;13.35;5.50;;;;;;;23.32;76.06;100339.09;4890889;60;1137085;-65
2022/08/01 10:22:19;;;;;;;5.83;4.55;;;;;;;23.50;74.86;100332.56;4880707;59;1139185;-63
2022/08/01 10:27:26;;;;;;;6.05;4.53;;;;;;;23.81;73.54;100324.38;4879820;60;1137103;-66
2022/08/01 10:32:34;;;;;;;5.25;4.25;;;;;;;24.09;73.57;100332.22;4839705;60;1137109;-66
2022/08/01 10:37:40;;;;;;;8.70;4.70;;;;;;;24.26;71.22;100323.16;4686188;62;1135059;-66
2022/08/01 10:42:47;;;;;;;10.45;4.58;;;;;;;24.40;69.49;100326.95;4765691;60;1135123;-67
2022/08/01 10:48:15;;;;;;;5.85;4.00;;;;;;;24.52;69.52;100321.70;4908818;59;1141401;-65
2022/08/01 10:53:27;;;;;;;5.50;4.97;;;;;;;24.76;69.41;100314.19;4907158;59;1139501;-63
2022/08/01 10:58:40;;;;;;;11.63;4.97;;;;;;;25.20;71.01;100306.58;4983431;59;1139324;-67
2022/08/01 11:04:08;;;;;;;7.50;4.25;;;;;;;25.52;67.50;100305.98;4979442;59;1141276;-66
2022/08/01 11:09:27;;;;;;;5.05;4.08;;;;;;;25.61;66.12;100302.48;4976703;59;1139159;-65
2022/08/01 11:14:34;;;;;;;7.65;4.78;;;;;;;25.54;64.26;100299.81;4982619;59;1138983;-66
2022/08/01 11:20:12;;;;;;;10.90;4.60;;;;;;;25.54;63.29;100309.30;4982653;59;1139091;-65
2022/08/01 11:25:18;;;;;;;7.67;3.98;;;;;;;25.62;64.73;100298.75;4982719;59;1141507;-67
2022/08/01 11:30:25;;;;;;;8.55;4.40;;;;;;;25.75;66.03;100307.28;4946768;59;1138984;-65
2022/08/01 11:35:31;;;;;;;5.65;4.30;;;;;;;25.78;66.32;100302.77;4982662;59;1139325;-67
2022/08/01 11:40:37;;;;;;;8.95;5.42;;;;;;;25.88;66.02;100301.72;4982842;58;1138854;-68
2022/08/01 11:45:51;;;;;;;9.48;5.20;;;;;;;25.98;65.60;100303.91;4989276;58;1139032;-67
2022/08/01 11:50:59;;;;;;;8.78;4.85;;;;;;;25.96;63.35;100302.80;4941795;59;1139185;-65
2022/08/01 11:56:05;;;;;;;4.15;3.75;;;;;;;25.93;64.42;100305.95;4908498;59;1139347;-64
2022/08/01 12:01:14;;;;;;;6.75;3.95;;;;;;;25.98;63.85;100306.61;4899760;60;1139579;-61
2022/08/01 12:06:30;;;;;;;11.15;3.80;;;;;;;25.98;62.97;100304.73;5038076;57;1139280;-64
2022/08/01 12:11:36;;;;;;;4.00;3.70;;;;;;;25.95;61.57;100303.85;5046969;57;1139452;-63
2022/08/01 12:16:43;;;;;;;8.95;4.25;;;;;;;25.95;62.63;100311.16;5011224;58;1136413;-64
2022/08/01 12:21:54;;;;;;;13.53;3.95;;;;;;;26.02;62.83;100314.08;4925393;58;1137200;-62
2022/08/01 12:26:59;;;;;;;10.48;3.92;;;;;;;26.06;62.88;100312.59;4961515;57;1139000;-64
2022/08/01 12:32:07;;;;;;;8.45;4.95;;;;;;;26.08;63.03;100316.42;4952324;59;1139386;-65
2022/08/01 12:37:13;;;;;;;7.62;3.83;;;;;;;26.00;61.60;100314.83;4942449;59;1137209;-65
2022/08/01 12:42:19;;;;;;;9.65;4.22;;;;;;;25.96;62.36;100316.35;4916285;60;1137199;-65
2022/08/01 12:47:26;;;;;;;6.08;4.37;;;;;;;25.92;62.70;100317.84;4916204;59;1137070;-67
2022/08/01 12:52:33;;;;;;;9.43;3.90;;;;;;;25.96;62.55;100319.59;4977105;58;1136979;-65
2022/08/01 12:57:44;;;;;;;5.25;4.80;;;;;;;25.99;62.59;100321.30;5010453;58;1136983;-65
2022/08/01 13:02:53;;;;;;;18.42;5.47;;;;;;;26.04;61.82;100318.75;5028086;58;1137351;-66
2022/08/01 13:07:59;;;;;;;6.60;4.25;;;;;;;26.04;62.14;100316.04;4986321;58;1139181;-66
2022/08/01 13:13:05;;;;;;;36.63;6.42;;;;;;;26.10;61.82;100321.93;4987555;58;1136916;-64
2022/08/01 13:18:29;;;;;;;6.17;4.58;;;;;;;26.11;60.79;100318.69;4987430;58;1138992;-67
2022/08/01 13:23:35;;;;;;;4.20;3.87;;;;;;;26.14;61.14;100323.64;4971959;58;1141887;-64
2022/08/01 13:28:40;;;;;;;9.57;4.20;;;;;;;26.17;61.19;100319.13;4975575;59;1138947;-65
2022/08/01 13:33:49;;;;;;;14.83;3.30;;;;;;;26.08;60.60;100325.39;5084064;57;1138979;-64
2022/08/01 13:44:19;;;;;;;8.53;3.37;;;;;;;26.10;59.93;100323.81;5049119;57;1138901;-67
2022/08/01 13:49:25;;;;;;;6.65;2.47;;;;;;;26.04;58.69;100329.59;5125978;57;1138973;-65
2022/08/01 13:54:31;;;;;;;2.15;1.98;;;;;;;25.96;57.96;100331.25;5131938;57;1139021;-65
2022/08/01 13:59:37;;;;;;;8.30;1.95;;;;;;;25.86;56.34;100330.39;5131834;57;1139061;-65
2022/08/01 14:04:42;;;;;;;2.17;1.87;;;;;;;25.86;55.60;100333.10;5107980;56;1138975;-64
2022/08/01 14:09:48;;;;;;;6.12;1.90;;;;;;;25.89;56.51;100335.37;5131736;56;1139023;-66
2022/08/01 14:14:54;;;;;;;7.37;1.82;;;;;;;25.89;56.47;100339.97;5125383;57;1138972;-66
2022/08/01 14:20:02;;;;;;;3.35;2.15;;;;;;;25.89;56.60;100344.03;5078738;57;1138916;-67
2022/08/01 14:25:09;;;;;;;4.60;1.87;;;;;;;25.79;55.68;100355.91;5154850;56;1139005;-66
2022/08/01 14:30:15;;;;;;;8.48;1.90;;;;;;;25.72;55.58;100353.24;5175269;56;1138969;-67
2022/08/01 14:35:21;;;;;;;3.08;1.10;;;;;;;25.61;55.85;100363.95;5153028;56;1139009;-64
2022/08/01 14:40:26;;;;;;;1.90;1.40;;;;;;;25.51;56.74;100367.95;5179399;56;1139033;-67
2022/08/01 14:45:32;;;;;;;4.42;1.32;;;;;;;25.47;57.66;100370.00;5174279;56;1139002;-65
2022/08/01 14:50:38;;;;;;;5.35;1.57;;;;;;;25.44;57.96;100375.32;5184398;56;1138975;-65
2022/08/01 14:55:45;;;;;;;2.27;1.40;;;;;;;25.40;58.13;100377.32;5178762;56;1139157;-66
2022/08/01 15:00:54;;;;;;;3.25;1.20;;;;;;;25.36;58.14;100377.48;5181685;56;1139232;-64
2022/08/01 15:05:59;;;;;;;3.45;1.57;;;;;;;25.32;57.59;100383.84;5217924;56;1138964;-66
2022/08/01 15:11:05;;;;;;;2.70;2.02;;;;;;;25.28;58.16;100382.61;5106117;56;1138982;-66
2022/08/01 15:16:12;;;;;;;5.55;1.70;;;;;;;25.25;58.10;100387.11;5072336;57;1138996;-66
2022/08/01 15:21:17;;;;;;;6.80;1.52;;;;;;;25.24;58.46;100386.80;5072227;57;1139300;-65
2022/08/01 15:26:23;;;;;;;4.25;1.20;;;;;;;25.24;58.87;100391.69;5070833;58;1139237;-67
2022/08/01 15:31:29;;;;;;;2.15;1.57;;;;;;;25.20;59.37;100392.36;5119557;57;1139017;-66
2022/08/01 15:36:35;;;;;;;3.77;1.50;;;;;;;25.20;59.66;100395.91;5124903;57;1138944;-65
2022/08/01 15:41:41;;;;;;;5.67;1.17;;;;;;;25.26;59.71;100396.06;5132230;56;1138985;-66
2022/08/01 15:46:51;;;;;;;5.55;1.20;;;;;;;25.31;60.07;100391.66;5168930;56;1139035;-63
2022/08/01 15:51:57;;;;;;;3.92;1.50;;;;;;;25.37;60.39;100392.64;5131326;56;1139071;-64
2022/08/01 15:57:03;;;;;;;5.45;1.37;;;;;;;25.38;60.20;100394.30;5149167;56;1139082;-67
2022/08/01 16:02:08;;;;;;;3.50;3.02;;;;;;;25.34;60.22;100401.23;5169925;56;1139180;-64
2022/08/01 16:07:14;;;;;;;8.10;1.62;;;;;;;25.27;60.61;100403.13;5180947;56;1139002;-66
2022/08/01 16:12:20;;;;;;;2.77;1.30;;;;;;;25.19;60.68;100410.48;5207750;56;1136946;-65
2022/08/01 16:17:26;;;;;;;5.87;1.40;;;;;;;25.13;60.45;100401.03;5200551;56;1136948;-67
2022/08/01 16:22:33;;;;;;;7.33;1.30;;;;;;;25.09;61.06;100405.20;5225832;56;1136880;-65
2022/08/01 16:27:40;;;;;;;6.95;1.32;;;;;;;25.06;61.59;100420.00;5115775;56;1137094;-67
2022/08/01 16:32:46;;;;;;;2.83;1.55;;;;;;;25.00;62.06;100417.34;5122653;56;1137283;-65
2022/08/01 16:37:51;;;;;;;5.10;1.10;;;;;;;24.88;62.34;100418.52;5155798;56;1136339;-67
2022/08/01 16:42:57;;;;;;;3.52;1.10;;;;;;;24.84;62.90;100421.33;5130466;56;1137038;-67
2022/08/01 16:48:03;;;;;;;5.15;0.85;;;;;;;24.76;63.42;100429.67;5105626;57;1136923;-66
2022/08/01 16:53:09;;;;;;;5.05;1.05;;;;;;;24.69;63.75;100437.83;5084817;57;1136935;-65
2022/08/01 16:58:18;;;;;;;3.20;1.30;;;;;;;24.65;64.10;100434.39;5084538;57;1136906;-67
2022/08/01 17:03:24;;;;;;;4.20;1.30;;;;;;;24.58;64.19;100438.48;5090147;57;1137139;-66
2022/08/01 17:08:30;;;;;;;3.95;1.12;;;;;;;24.48;64.37;100447.02;4906967;57;1136929;-65
2022/08/01 17:13:36;;;;;;;4.30;1.17;;;;;;;24.40;64.82;100450.48;4949546;59;1136948;-65
2022/08/01 17:18:42;;;;;;;5.22;2.47;;;;;;;24.24;65.19;100454.45;4954253;59;1136954;-67
2022/08/01 17:23:48;;;;;;;4.17;1.82;;;;;;;24.07;65.73;100458.59;4959120;59;1137016;-67
2022/08/01 17:28:53;;;;;;;1.70;1.60;;;;;;;23.98;65.92;100457.98;4879982;59;1136937;-66
2022/08/01 17:33:59;;;;;;;12.05;2.05;;;;;;;23.90;66.05;100466.27;4885320;59;1136960;-64
2022/08/01 17:39:07;;;;;;;5.20;2.00;;;;;;;23.85;66.38;100468.23;5018672;58;1136921;-65
2022/08/01 17:44:13;;;;;;;3.20;2.05;;;;;;;23.78;66.46;100473.33;5038995;57;1134979;-65
2022/08/01 17:49:21;;;;;;;7.85;2.20;;;;;;;23.75;66.85;100472.39;5042218;58;1139456;-64
2022/08/01 17:54:26;;;;;;;11.03;2.60;;;;;;;23.70;67.27;100481.61;5043916;58;1138985;-64
2022/08/01 17:59:33;;;;;;;4.40;2.33;;;;;;;23.67;67.45;100483.40;5039439;57;1141143;-65
2022/08/01 18:04:38;;;;;;;3.23;1.87;;;;;;;23.64;67.65;100490.03;5039319;57;1148860;-66
2022/08/01 18:09:45;;;;;;;6.87;2.22;;;;;;;23.62;68.06;100489.92;5041278;57;1139026;-65
2022/08/01 18:14:51;;;;;;;6.60;2.10;;;;;;;23.57;68.45;100495.09;5043982;57;1139265;-65
2022/08/01 18:19:57;;;;;;;4.53;2.30;;;;;;;23.45;68.77;100493.48;5039651;57;1138910;-66
2022/08/01 18:25:05;;;;;;;9.75;2.10;;;;;;;23.37;69.13;100495.86;5047544;57;1139225;-67
2022/08/01 18:30:11;;;;;;;6.30;2.37;;;;;;;23.38;69.44;100500.70;5006404;58;1139026;-66
2022/08/01 18:35:17;;;;;;;6.62;2.56;;;;;;;23.37;69.57;100504.47;5057271;57;1138971;-65
2022/08/01 18:40:23;;;;;;;7.03;2.12;;;;;;;23.36;69.67;100500.11;5064342;57;1138984;-65
2022/08/01 18:45:29;;;;;;;17.37;2.77;;;;;;;23.33;69.84;100495.94;5014138;57;1138977;-64
2022/08/01 18:50:34;;;;;;;8.68;2.45;;;;;;;23.37;69.95;100504.47;4998416;57;1141255;-67
2022/08/01 18:55:40;;;;;;;6.40;2.87;;;;;;;23.39;69.86;100509.95;4998815;57;1139262;-64
2022/08/01 19:00:45;;;;;;;5.70;2.30;;;;;;;23.43;69.86;100519.33;5012871;57;1138989;-66
2022/08/01 19:05:51;;;;;;;6.72;2.65;;;;;;;23.41;69.93;100526.78;5075486;57;1139127;-61
2022/08/01 19:10:58;;;;;;;4.72;2.55;;;;;;;23.36;69.99;100533.33;5079354;57;1139052;-62
2022/08/01 19:16:04;;;;;;;4.33;2.90;;;;;;;23.28;70.32;100541.59;5079362;57;1139029;-63
2022/08/01 19:21:10;;;;;;;4.15;2.60;;;;;;;23.20;70.66;100551.22;5070021;57;1138943;-63
2022/08/01 19:26:20;;;;;;;8.38;3.22;;;;;;;23.13;70.85;100558.43;5066956;57;1138978;-66
2022/08/01 19:31:28;;;;;;;3.80;2.75;;;;;;;23.09;71.26;100557.16;5101572;57;1139012;-64
2022/08/01 19:36:35;;;;;;;7.62;3.12;;;;;;;22.96;71.63;100556.57;5091161;57;1139074;-65
2022/08/01 19:41:43;;;;;;;3.72;2.45;;;;;;;22.98;72.01;100567.16;5078239;57;1139025;-64
2022/08/01 19:46:48;;;;;;;11.28;2.72;;;;;;;22.98;72.01;100567.16;5097229;57;1138861;-66
2022/08/01 19:52:01;;;;;;;2.92;2.50;;;;;;;22.87;72.02;100582.05;5077962;57;1141336;-65
2022/08/01 19:57:10;;;;;;;4.50;2.50;;;;;;;22.79;72.45;100585.71;5106240;57;1138974;-67
2022/08/01 20:02:21;;;;;;;5.15;2.30;;;;;;;22.72;72.57;100589.37;5073447;57;1138980;-67
2022/08/01 20:07:28;;;;;;;20.13;12.50;;;;;;;22.69;72.37;100595.16;5104291;57;1139007;-65
2022/08/01 20:12:35;;;;;;;14.63;6.10;;;;;;;22.68;72.29;100599.70;5141080;57;1143205;-65
2022/08/01 20:17:41;;;;;;;6.22;4.70;;;;;;;22.67;71.55;100605.30;5140376;57;1141083;-67
2022/08/01 20:22:50;;;;;;;27.32;13.48;;;;;;;22.68;71.22;100611.01;5141301;57;1139047;-65
2022/08/01 20:27:57;;;;;;;16.45;7.67;;;;;;;22.64;70.75;100615.95;5115484;57;1143425;-65
2022/08/01 20:33:05;;;;;;;9.28;5.42;;;;;;;22.60;70.24;100617.39;4998321;58;1141099;-66
2022/08/01 20:38:13;;;;;;;23.47;13.20;;;;;;;22.56;69.86;100622.01;4998048;58;1136238;-66
2022/08/01 20:43:24;;;;;;;7.62;4.17;;;;;;;22.54;69.37;100618.16;4996392;58;1141052;-64
2022/08/01 20:48:31;;;;;;;14.53;6.25;;;;;;;22.47;68.97;100623.98;4988336;58;1136955;-66
2022/08/01 20:53:42;;;;;;;28.55;11.75;;;;;;;22.40;68.72;100624.45;4986068;58;1138944;-64
2022/08/01 20:59:17;;;;;;;17.07;8.83;;;;;;;22.33;68.60;100626.24;4931150;59;1141293;-67
2022/08/01 21:04:45;;;;;;;6.12;3.10;;;;;;;22.30;68.51;100622.09;4984891;58;1139010;-66
2022/08/01 21:10:11;;;;;;;10.68;5.53;;;;;;;22.27;68.30;100630.56;4993351;58;1135021;-66
2022/08/01 21:15:30;;;;;;;21.12;8.43;;;;;;;22.22;67.76;100638.89;4911172;59;1141343;-65
2022/08/01 21:20:42;;;;;;;30.15;11.28;;;;;;;22.21;67.81;100638.56;4911361;59;1141139;-65
2022/08/01 21:25:48;;;;;;;39.90;14.03;;;;;;;22.20;67.53;100640.94;4993991;58;1143194;-66
2022/08/01 21:30:59;;;;;;;28.47;11.68;;;;;;;22.17;67.41;100649.39;4983886;58;1143418;-64
2022/08/01 21:36:05;;;;;;;17.07;6.45;;;;;;;22.15;67.21;100659.55;4920068;59;1143218;-64
2022/08/01 21:41:11;;;;;;;9.65;3.80;;;;;;;22.06;66.86;100659.66;4840069;60;1141127;-64
2022/08/01 21:46:18;;;;;;;4.50;2.95;;;;;;;22.05;66.87;100676.84;5054628;57;1139060;-65
2022/08/01 21:51:34;;;;;;;9.78;2.95;;;;;;;22.05;66.79;100674.14;4961056;59;1139129;-65
2022/08/01 21:57:11;;;;;;;6.17;2.30;;;;;;;22.03;66.79;100681.58;4920049;59;1139031;-64
2022/08/01 22:02:24;;;;;;;6.55;2.87;;;;;;;22.03;66.69;100685.61;4908376;59;1139005;-64
2022/08/01 22:07:31;;;;;;;6.80;3.10;;;;;;;;;;4911861;59;1139297;-66
2022/08/01 22:12:37;;;;;;;5.05;3.10;;;;;;;21.94;66.72;100692.62;4916886;58;817947;-64
2022/08/01 22:17:43;;;;;;;2.83;2.42;;;;;;;21.94;67.25;100696.16;4911867;59;1137052;-65
2022/08/01 22:22:51;;;;;;;4.72;2.22;;;;;;;21.90;67.33;100704.79;4997987;58;1139080;-65
2022/08/01 22:27:57;;;;;;;5.03;2.40;;;;;;;21.90;67.79;100712.87;4986184;58;1139109;-64
2022/08/01 22:33:03;;;;;;;3.27;2.15;;;;;;;21.88;67.75;100713.56;4978884;59;1138805;-66
2022/08/01 22:38:08;;;;;;;5.35;1.70;;;;;;;21.84;67.50;100714.47;5154817;57;1138990;-66
2022/08/01 22:43:28;;;;;;;6.03;2.10;;;;;;;21.79;67.42;100716.88;5057709;58;1139070;-64
2022/08/01 22:48:44;;;;;;;5.33;2.65;;;;;;;21.73;67.77;100718.96;5224449;56;1139074;-67
2022/08/01 22:54:03;;;;;;;3.92;2.20;;;;;;;21.68;67.81;100717.36;5232018;56;1136789;-66
2022/08/01 22:59:32;;;;;;;12.88;2.40;;;;;;;21.59;68.24;100723.84;5232415;56;1136753;-64
2022/08/01 23:04:49;;;;;;;4.67;1.85;;;;;;;21.57;68.59;100727.23;5153841;56;1138977;-64
2022/08/01 23:09:57;;;;;;;2.08;1.95;;;;;;;21.52;68.79;100722.42;5150442;57;1136901;-64
2022/08/01 23:15:04;;;;;;;2.60;2.40;;;;;;;21.46;68.89;100727.18;5150515;56;1136984;-64
2022/08/01 23:20:11;;;;;;;3.65;2.40;;;;;;;21.40;69.26;100725.22;5103042;57;1136974;-66
2022/08/01 23:25:17;;;;;;;9.44;2.54;;;;;;;21.35;69.61;100735.72;5120345;57;1134809;-64
2022/08/01 23:30:30;;;;;;;3.42;2.80;;;;;;;21.33;69.71;100735.89;5107807;57;1134879;-64